Bellefontaine, OH

11:37 AM EDT on June 25, 2017 (GMT -0400)
Bellefontaine

Weather History for KEDJ - May, 2013

Change the Weather History Date:

Saturday, May 11, 2013

  Actual Average (KDLZ) Record (KDLZ)
Temperature  
Mean Temperature 47 °F -  
Max Temperature 55 °F 68 °F 89 °F (1936)
Min Temperature 39 °F 44 °F 30 °F (1945)
Degree Days  
Heating Degree Days 18    
Moisture  
Dew Point 46 °F    
Average Humidity 94    
Maximum Humidity 100    
Minimum Humidity 72    
Precipitation  
Precipitation 0.01 in - - ()
Sea Level Pressure  
Sea Level Pressure 29.87 in    
Wind  
Wind Speed 9 mph (WNW)    
Max Wind Speed 24 mph    
Max Gust Speed 44 mph    
Visibility 9 miles    
Events      
Averages and records for this station are not official NWS values.
T = Trace of Precipitation, MM = Missing Value Source: NWS Daily Summary

Daily Weather History Graph

Daily Weather History Graph

Search for Another Location

Airport or City:

Trip Planner

Search our weather history database for the weather conditions in past years. The results will help you decide how hot, cold, wet, or windy it might be!

Date:

Astronomy

May. 11, 2013 Rise Set
Actual Time 6:22 AM EDT 8:41 PM EDT
Civil Twilight 5:52 AM EDT 9:11 PM EDT
Nautical Twilight 5:14 AM EDT 9:49 PM EDT
Astronomical Twilight 4:33 AM EDT 10:31 PM EDT
Moon 7:29 AM EDT (5/11) 10:20 PM EDT (5/11)
Length of Visible Light 15h 19m
Length of Day
14h 18m
Waxing Crescent, 3% of the Moon is Illuminated
May 11
Waxing Crescent
May 18
First Quarter
May 25
Full
May 31
Last Quarter
Jun 8
New

Hourly Weather History & Observations

Time (EDT) Temp. Windchill Dew Point Humidity Pressure Visibility Wind Dir Wind Speed Gust Speed Precip Events Conditions
12:05 AM 55.4 °F - 55.4 °F 100% 29.83 in 9.0 mi NW 9.2 mph - 0.00 in   Overcast
12:25 AM 53.6 °F - 53.6 °F 100% 29.84 in 10.0 mi WNW 9.2 mph - 0.00 in   Overcast
12:45 AM 53.6 °F - 53.6 °F 100% 29.85 in 8.0 mi West 5.8 mph - 0.00 in   Overcast
1:05 AM 53.6 °F - 53.6 °F 100% 29.85 in 8.0 mi West 6.9 mph - 0.00 in   Overcast
1:25 AM 53.6 °F - 53.6 °F 100% 29.85 in 6.0 mi WNW 8.1 mph - 0.00 in   Overcast
1:45 AM 51.8 °F - 51.8 °F 100% 29.85 in 4.0 mi WNW 8.1 mph - 0.00 in   Overcast
2:05 AM 51.8 °F - 51.8 °F 100% 29.85 in 3.0 mi WNW 8.1 mph - 0.00 in   Overcast
2:25 AM 50.0 °F - 50.0 °F 100% 29.84 in 2.5 mi NW 10.4 mph - 0.00 in   Overcast
2:45 AM 50.0 °F - 50.0 °F 100% 29.85 in 8.0 mi NW 10.4 mph 16.1 mph 0.00 in   Overcast
3:05 AM 48.2 °F - 48.2 °F 100% 29.84 in 7.0 mi WNW 6.9 mph - 0.00 in   Overcast
3:25 AM 48.2 °F - 48.2 °F 100% 29.84 in 4.0 mi WNW 8.1 mph - 0.00 in   Overcast
3:45 AM 48.2 °F - 48.2 °F 100% 29.85 in 4.0 mi NW 11.5 mph - 0.00 in   Overcast
4:05 AM 48.2 °F - 48.2 °F 100% 29.85 in 5.0 mi NW 9.2 mph - 0.00 in   Overcast
4:25 AM 46.4 °F 41.5 °F 46.4 °F 100% 29.85 in 7.0 mi NW 10.4 mph - 0.00 in   Overcast
4:45 AM 46.4 °F 41.5 °F 46.4 °F 100% 29.85 in 4.0 mi NW 10.4 mph - 0.00 in   Overcast
5:05 AM 46.4 °F 42.4 °F 46.4 °F 100% 29.86 in 5.0 mi WNW 8.1 mph - 0.00 in   Overcast
5:25 AM 46.4 °F 41.5 °F 46.4 °F 100% 29.85 in 5.0 mi NW 10.4 mph - 0.00 in   Overcast
5:45 AM 46.4 °F 41.5 °F 46.4 °F 100% 29.85 in 3.0 mi NW 10.4 mph - 0.00 in   Overcast
6:05 AM 44.6 °F 39.7 °F 44.6 °F 100% 29.86 in 10.0 mi NW 9.2 mph 16.1 mph 0.00 in   Overcast
6:25 AM 44.6 °F 39.7 °F 44.6 °F 100% 29.86 in 10.0 mi NW 9.2 mph - 0.00 in   Overcast
6:45 AM 46.4 °F 42.4 °F 46.4 °F 100% 29.87 in 10.0 mi NW 8.1 mph - 0.00 in   Overcast
7:05 AM 46.4 °F 42.9 °F 46.4 °F 100% 29.87 in 7.0 mi NW 6.9 mph - 0.00 in   Overcast
7:25 AM 44.6 °F 39.7 °F 44.6 °F 100% 29.87 in 10.0 mi NW 9.2 mph 16.1 mph 0.00 in   Overcast
7:45 AM 44.6 °F 39.2 °F 44.6 °F 100% 29.87 in 10.0 mi NW 10.4 mph - 0.00 in   Overcast
8:05 AM 44.6 °F 39.7 °F 44.6 °F 100% 29.87 in 10.0 mi WNW 9.2 mph - 0.00 in   Overcast
8:25 AM 46.4 °F 42.9 °F 46.4 °F 100% 29.87 in 10.0 mi WNW 6.9 mph - 0.00 in   Overcast
8:45 AM 46.4 °F 42.4 °F 46.4 °F 100% 29.87 in 10.0 mi WNW 8.1 mph - 0.00 in   Overcast
9:05 AM 46.4 °F 43.5 °F 46.4 °F 100% 29.87 in 10.0 mi WNW 5.8 mph - 0.00 in   Overcast
9:25 AM 46.4 °F 41.5 °F 46.4 °F 100% 29.87 in 10.0 mi NW 10.4 mph - 0.00 in   Overcast
9:45 AM 46.4 °F 42.4 °F 46.4 °F 100% 29.87 in 10.0 mi NW 8.1 mph - 0.00 in   Overcast
10:05 AM 46.4 °F 42.9 °F 46.4 °F 100% 29.87 in 10.0 mi West 6.9 mph - 0.00 in   Overcast
10:25 AM 46.4 °F 42.9 °F 46.4 °F 100% 29.87 in 10.0 mi West 6.9 mph - 0.00 in   Overcast
10:45 AM 46.4 °F 42.9 °F 46.4 °F 100% 29.88 in 10.0 mi West 6.9 mph - 0.00 in   Overcast
11:05 AM 46.4 °F 42.9 °F 46.4 °F 100% 29.88 in 10.0 mi West 6.9 mph - 0.00 in   Overcast
11:25 AM 46.4 °F 41.9 °F 46.4 °F 100% 29.88 in 10.0 mi West 9.2 mph - 0.00 in   Overcast
11:45 AM 48.2 °F - 48.2 °F 100% 29.87 in 10.0 mi WNW 8.1 mph - 0.00 in   Overcast
12:05 PM 48.2 °F - 46.4 °F 93% 29.87 in 10.0 mi WNW 6.9 mph - 0.00 in   Overcast
12:25 PM 48.2 °F - 48.2 °F 100% 29.87 in 10.0 mi West 6.9 mph - 0.00 in   Overcast
12:45 PM 48.2 °F - 48.2 °F 100% 29.87 in 10.0 mi West 6.9 mph - 0.00 in   Overcast
1:05 PM 48.2 °F - 48.2 °F 100% 29.87 in 10.0 mi WSW 11.5 mph - 0.00 in   Overcast
1:25 PM 48.2 °F - 48.2 °F 100% 29.88 in 10.0 mi WSW 10.4 mph - 0.00 in   Overcast
1:45 PM 48.2 °F - 48.2 °F 100% 29.87 in 10.0 mi WSW 10.4 mph - 0.00 in   Overcast
2:05 PM 50.0 °F - 48.2 °F 94% 29.87 in 10.0 mi West 10.4 mph - 0.00 in   Overcast
2:25 PM 50.0 °F - 46.4 °F 87% 29.87 in 10.0 mi SW 8.1 mph - 0.00 in   Overcast
2:45 PM 50.0 °F - 48.2 °F 94% 29.86 in 10.0 mi West 10.4 mph - 0.00 in   Overcast
3:05 PM 50.0 °F - 48.2 °F 94% 29.87 in 10.0 mi WSW 10.4 mph - 0.00 in   Overcast
3:25 PM 51.8 °F - 48.2 °F 88% 29.85 in 10.0 mi SW 10.4 mph - 0.00 in   Overcast
3:45 PM 51.8 °F - 48.2 °F 88% 29.85 in 10.0 mi SW 9.2 mph - 0.00 in   Overcast
4:05 PM 51.8 °F - 46.4 °F 82% 29.85 in 10.0 mi WSW 10.4 mph 16.1 mph 0.00 in   Overcast
4:25 PM 51.8 °F - 48.2 °F 88% 29.85 in 10.0 mi SW 10.4 mph - 0.00 in   Overcast
4:45 PM 51.8 °F - 46.4 °F 82% 29.85 in 10.0 mi WSW 10.4 mph 17.3 mph 0.00 in   Overcast
5:05 PM 53.6 °F - 46.4 °F 77% 29.85 in 10.0 mi WSW 9.2 mph 17.3 mph 0.00 in   Overcast
5:25 PM 53.6 °F - 48.2 °F 82% 29.84 in 10.0 mi SW 12.7 mph 17.3 mph 0.00 in   Mostly Cloudy
5:45 PM 55.4 °F - 46.4 °F 72% 29.84 in 10.0 mi WSW 11.5 mph 17.3 mph 0.00 in   Mostly Cloudy
6:05 PM 53.6 °F - 48.2 °F 82% 29.83 in 10.0 mi SW 11.5 mph - 0.00 in   Overcast
6:25 PM 53.6 °F - 48.2 °F 82% 29.83 in 10.0 mi SW 12.7 mph - 0.00 in   Overcast
6:45 PM 55.4 °F - 50.0 °F 82% 29.83 in 10.0 mi SW 10.4 mph - 0.00 in   Mostly Cloudy
7:05 PM 55.4 °F - 48.2 °F 77% 29.82 in 10.0 mi SSW 12.7 mph - 0.00 in   Mostly Cloudy
7:25 PM 55.4 °F - 48.2 °F 77% 29.82 in 10.0 mi SW 13.8 mph 21.9 mph 0.00 in   Scattered Clouds
7:45 PM 53.6 °F - 48.2 °F 82% 29.82 in 10.0 mi SSW 13.8 mph - 0.00 in   Mostly Cloudy
8:05 PM 46.4 °F 38.1 °F 44.6 °F 93% 29.88 in 2.5 mi NW 24.2 mph 43.7 mph 0.00 in   Overcast
8:25 PM 42.8 °F 36.2 °F 41.0 °F 93% 29.88 in 4.0 mi NW 12.7 mph 25.3 mph 0.01 in   Mostly Cloudy
8:45 PM 42.8 °F 35.8 °F 39.2 °F 87% 29.89 in 10.0 mi NNW 13.8 mph 21.9 mph 0.01 in   Overcast
9:05 PM 44.6 °F 37.8 °F 39.2 °F 81% 29.90 in 10.0 mi NNW 15.0 mph 23.0 mph 0.00 in   Overcast
9:25 PM 44.6 °F 38.8 °F 37.4 °F 76% 29.91 in 10.0 mi NNW 11.5 mph 25.3 mph 0.00 in   Overcast
10:05 PM 42.8 °F 37.5 °F 37.4 °F 81% 29.93 in 10.0 mi WNW 9.2 mph - 0.00 in   Scattered Clouds
10:25 PM 42.8 °F 38.0 °F 37.4 °F 81% 29.93 in 10.0 mi NW 8.1 mph - 0.00 in   Clear
10:45 PM 41.0 °F 35.8 °F 37.4 °F 87% 29.93 in 10.0 mi NW 8.1 mph - 0.00 in   Partly Cloudy
11:05 PM 41.0 °F 35.8 °F 37.4 °F 87% 29.94 in 10.0 mi WNW 8.1 mph - 0.00 in   Partly Cloudy
11:25 PM 39.2 °F 35.9 °F 37.4 °F 93% 29.95 in 10.0 mi WNW 4.6 mph - 0.00 in   Clear
11:45 PM 39.2 °F 35.9 °F 37.4 °F 93% 29.95 in 10.0 mi WNW 4.6 mph - 0.00 in   Clear